Time;durP1;ratioP1;P1;durP2;ratioP2;P2;SDS_P1;SDS_P2;PMS_P1;PMS_P2;Temp;Humidity;BMP_temperature;BMP_pressure;BME280_temperature;BME280_humidity;BME280_pressure;Samples;Min_cycle;Max_cycle;Signal;HPM_P1;HPM_P2
2022/08/10 00:01:09;;;;;;;4.65;2.90;;;;;;;18.66;64.54;102582.78;5110377;28;20028;-57
2022/08/10 00:03:34;;;;;;;4.40;2.58;;;;;;;18.67;64.48;102583.63;5107095;28;20052;-57
2022/08/10 00:05:59;;;;;;;3.08;2.75;;;;;;;18.66;64.62;102582.78;5108934;28;20026;-56
2022/08/10 00:08:25;;;;;;;5.65;3.00;;;;;;;18.64;64.66;102584.81;5111872;28;20476;-57
2022/08/10 00:10:55;;;;;;;6.50;2.83;;;;;;;18.62;64.59;102586.00;5103847;27;20115;-57
2022/08/10 00:13:22;;;;;;;4.32;2.90;;;;;;;18.47;65.26;102586.72;5110449;28;20031;-58
2022/08/10 00:15:47;;;;;;;3.58;2.90;;;;;;;18.40;65.41;102578.50;5109998;28;20456;-57
2022/08/10 00:18:13;;;;;;;2.88;2.65;;;;;;;18.42;65.24;102581.84;5104705;28;20039;-57
2022/08/10 00:20:38;;;;;;;6.38;3.10;;;;;;;18.27;65.99;102583.56;5104497;27;20102;-58
2022/08/10 00:23:03;;;;;;;6.38;2.97;;;;;;;18.23;66.14;102582.22;5102490;28;20019;-57
2022/08/10 00:25:29;;;;;;;3.60;3.10;;;;;;;18.23;66.29;102576.84;5102280;28;20024;-59
2022/08/10 00:27:54;;;;;;;3.67;3.30;;;;;;;18.25;65.88;102569.44;5112896;28;20539;-58
2022/08/10 00:30:20;;;;;;;5.45;2.90;;;;;;;18.28;65.80;102569.13;5123797;27;20023;-57
2022/08/10 00:32:46;;;;;;;7.60;2.90;;;;;;;18.32;65.72;102566.94;5112035;28;20036;-57
2022/08/10 00:35:11;;;;;;;7.95;3.10;;;;;;;18.29;65.64;102565.41;5108737;28;20085;-58
2022/08/10 00:37:36;;;;;;;4.00;3.10;;;;;;;18.12;66.27;102568.13;5111704;28;20057;-56
2022/08/10 00:40:03;;;;;;;3.83;2.97;;;;;;;18.22;65.98;102559.91;5116327;27;20438;-58
2022/08/10 00:42:29;;;;;;;5.45;3.08;;;;;;;18.25;65.71;102564.06;5111492;28;20023;-58
2022/08/10 00:44:54;;;;;;;4.93;3.05;;;;;;;18.07;66.31;102562.44;5112090;28;20050;-57
2022/08/10 00:47:19;;;;;;;3.33;2.90;;;;;;;18.06;66.73;102559.94;5105025;28;20073;-57
2022/08/10 00:49:45;;;;;;;3.28;2.97;;;;;;;18.06;66.21;102560.75;5112782;27;20024;-58
2022/08/10 00:52:12;;;;;;;6.80;3.30;;;;;;;18.03;66.41;102555.72;5107963;28;20032;-57
2022/08/10 00:54:40;;;;;;;4.55;2.95;;;;;;;17.98;66.53;102560.75;5112638;28;20024;-56
2022/08/10 00:57:05;;;;;;;5.05;3.03;;;;;;;18.01;66.39;102555.88;5102023;28;20520;-59
2022/08/10 00:59:32;;;;;;;4.25;3.17;;;;;;;17.97;66.63;102559.88;5109328;27;20123;-57
2022/08/10 01:01:58;;;;;;;5.60;3.28;;;;;;;17.95;66.63;102556.53;5104223;28;20028;-58
2022/08/10 01:04:23;;;;;;;4.57;3.20;;;;;;;17.96;66.49;102550.16;5107737;28;20380;-57
2022/08/10 01:07:17;;;;;;;3.72;3.30;;;;;;;17.84;67.21;102563.09;5090180;28;20034;-57
2022/08/10 01:10:02;;;;;;;3.95;3.17;;;;;;;17.83;67.36;102561.44;5112870;27;20043;-58
2022/08/10 01:12:35;;;;;;;7.00;3.30;;;;;;;17.79;67.36;102554.72;5104064;28;20023;-57
2022/08/10 01:15:09;;;;;;;4.45;3.13;;;;;;;17.66;68.35;102554.38;5110816;28;20042;-57
2022/08/10 01:17:53;;;;;;;5.97;3.17;;;;;;;17.84;67.11;102546.16;5110567;28;20027;-57
2022/08/10 01:20:33;;;;;;;3.38;3.10;;;;;;;17.79;67.30;102543.97;5103381;27;20101;-57
2022/08/10 01:23:36;;;;;;;5.68;3.25;;;;;;;17.74;67.14;102547.16;5109807;28;20036;-58
2022/08/10 01:26:11;;;;;;;3.78;3.03;;;;;;;17.75;67.13;102548.00;5105738;28;20083;-56
2022/08/10 01:29:06;;;;;;;4.78;3.40;;;;;;;17.64;67.83;102556.38;5103570;28;20030;-57
2022/08/10 01:31:39;;;;;;;5.18;3.28;;;;;;;17.63;68.07;102543.97;5106803;28;20110;-58
2022/08/10 01:34:10;;;;;;;6.70;3.15;;;;;;;17.50;67.92;102545.31;5101445;28;20032;-57
2022/08/10 01:36:45;;;;;;;5.00;3.30;;;;;;;17.50;68.49;102550.66;5105978;28;20031;-59
2022/08/10 01:39:18;;;;;;;4.75;3.35;;;;;;;17.52;68.79;102545.97;5101249;27;21304;-58
2022/08/10 01:41:49;;;;;;;4.03;3.33;;;;;;;17.45;68.33;102548.50;5113731;27;20035;-60
2022/08/10 01:44:18;;;;;;;3.85;3.38;;;;;;;17.50;68.36;102550.66;5110421;28;20055;-59
2022/08/10 01:46:47;;;;;;;7.30;3.70;;;;;;;17.43;68.06;102545.13;5110507;28;20115;-57
2022/08/10 01:49:16;;;;;;;4.32;3.50;;;;;;;17.40;68.79;102544.59;5114469;27;20032;-57
2022/08/10 01:51:45;;;;;;;3.90;3.50;;;;;;;17.34;69.20;102544.28;5108230;28;20044;-58
2022/08/10 01:54:13;;;;;;;4.30;3.30;;;;;;;17.39;68.39;102545.63;5108651;28;20030;-59
2022/08/10 01:56:43;;;;;;;5.45;3.58;;;;;;;17.27;69.33;102547.78;5109950;28;20136;-58
2022/08/10 01:59:13;;;;;;;6.72;3.60;;;;;;;17.29;69.08;102538.59;5110122;27;20048;-57
2022/08/10 02:01:46;;;;;;;11.93;3.60;;;;;;;17.27;68.92;102545.94;5110158;28;20546;-57
2022/08/10 02:04:14;;;;;;;5.75;3.55;;;;;;;17.29;68.77;102543.94;5101703;28;20023;-56
2022/08/10 02:06:52;;;;;;;6.13;3.53;;;;;;;17.33;68.56;102550.63;5108075;28;20020;-57
2022/08/10 02:09:22;;;;;;;6.00;3.75;;;;;;;17.27;69.09;102545.94;5108252;27;20023;-56
2022/08/10 02:11:50;;;;;;;7.03;3.70;;;;;;;17.10;69.86;102546.88;5115442;27;20491;-56
2022/08/10 02:14:17;;;;;;;4.63;3.78;;;;;;;17.18;69.96;102557.66;5101058;28;20422;-58
2022/08/10 02:16:45;;;;;;;6.85;3.60;;;;;;;17.14;69.52;102550.94;5110999;28;20523;-56
2022/08/10 02:19:14;;;;;;;4.53;3.70;;;;;;;17.24;69.47;102550.78;5106350;28;20024;-57
2022/08/10 02:21:42;;;;;;;4.10;3.70;;;;;;;17.13;69.79;102543.91;5107205;28;20038;-58
2022/08/10 02:24:11;;;;;;;4.40;3.30;;;;;;;17.11;69.81;102535.19;5107770;28;20035;-58
2022/08/10 02:26:38;;;;;;;4.65;3.58;;;;;;;17.07;69.60;102548.06;5107999;28;20023;-58
2022/08/10 02:29:04;;;;;;;5.75;3.80;;;;;;;17.19;69.86;102543.25;5105682;28;20024;-60
2022/08/10 02:31:30;;;;;;;4.35;3.65;;;;;;;17.10;70.31;102538.84;5107358;28;20024;-58
2022/08/10 02:33:56;;;;;;;7.57;4.20;;;;;;;17.08;70.21;102544.41;5103684;28;20473;-57
2022/08/10 02:36:25;;;;;;;6.07;3.90;;;;;;;16.92;70.28;102545.13;5106998;28;20024;-58
2022/08/10 02:38:56;;;;;;;7.40;3.97;;;;;;;16.97;70.40;102550.03;5108860;28;20127;-57
2022/08/10 02:41:38;;;;;;;4.55;4.03;;;;;;;16.90;70.10;102542.63;5109071;28;20590;-58
2022/08/10 02:44:16;;;;;;;6.95;4.05;;;;;;;16.97;70.37;102545.47;5108979;28;20523;-58
2022/08/10 02:46:47;;;;;;;5.13;4.00;;;;;;;16.97;70.72;102540.13;5103672;28;20030;-59
2022/08/10 02:49:20;;;;;;;5.32;4.20;;;;;;;16.92;70.48;102540.63;5108470;28;20042;-57
2022/08/10 02:51:53;;;;;;;6.63;4.05;;;;;;;16.88;70.48;102541.94;5109324;28;20043;-57
2022/08/10 02:54:25;;;;;;;5.43;4.32;;;;;;;16.87;70.53;102534.09;5110129;28;20027;-58
2022/08/10 02:56:53;;;;;;;6.30;4.32;;;;;;;16.80;70.69;102529.38;5107673;28;20058;-58
2022/08/10 02:59:24;;;;;;;7.57;4.30;;;;;;;16.79;70.63;102522.31;5106422;28;20035;-59
2022/08/10 03:01:54;;;;;;;7.10;4.30;;;;;;;16.78;71.17;102523.31;5097411;28;20070;-58
2022/08/10 03:04:42;;;;;;;5.22;4.40;;;;;;;16.74;70.94;102521.13;5103942;28;20028;-58
2022/08/10 03:07:12;;;;;;;8.13;4.40;;;;;;;16.74;70.91;102519.31;5099650;28;20421;-57
2022/08/10 03:09:40;;;;;;;7.38;4.50;;;;;;;16.71;71.21;102522.28;5106915;28;20020;-57
2022/08/10 03:12:08;;;;;;;7.30;4.30;;;;;;;16.62;71.48;102515.22;5110625;28;20038;-57
2022/08/10 03:14:36;;;;;;;7.07;4.60;;;;;;;16.62;71.84;102516.06;5107250;28;20484;-58
2022/08/10 03:17:02;;;;;;;7.32;4.93;;;;;;;16.59;71.80;102515.53;5111550;28;20028;-56
2022/08/10 03:19:30;;;;;;;6.18;4.78;;;;;;;16.50;72.09;102507.47;5115453;27;20026;-57
2022/08/10 03:21:57;;;;;;;5.97;4.90;;;;;;;16.52;72.14;102516.19;5108812;28;20114;-58
2022/08/10 03:24:25;;;;;;;5.80;5.20;;;;;;;16.51;72.30;102514.50;5112322;28;20054;-57
2022/08/10 03:26:52;;;;;;;7.18;4.93;;;;;;;16.38;72.83;102509.59;5108233;28;20503;-57
2022/08/10 03:29:20;;;;;;;5.32;4.82;;;;;;;16.43;72.69;102522.47;5109644;27;20035;-57
2022/08/10 03:31:46;;;;;;;6.40;5.05;;;;;;;16.34;73.14;102512.75;5102197;28;20399;-57
2022/08/10 03:34:13;;;;;;;6.30;4.93;;;;;;;16.38;72.97;102508.75;5113235;28;20047;-57
2022/08/10 03:36:39;;;;;;;6.63;4.97;;;;;;;16.36;72.84;102516.09;5107133;28;20031;-57
2022/08/10 03:39:04;;;;;;;11.00;5.22;;;;;;;16.31;73.58;102510.38;5111503;27;20031;-56
2022/08/10 03:41:35;;;;;;;6.78;5.28;;;;;;;16.13;73.76;102506.78;5106865;27;20034;-58
2022/08/10 03:44:02;;;;;;;8.00;5.50;;;;;;;16.09;74.38;102515.28;5107367;28;20071;-57
2022/08/10 03:46:29;;;;;;;6.90;5.10;;;;;;;16.19;73.92;102516.00;5110079;28;20035;-56
2022/08/10 03:48:59;;;;;;;8.98;5.28;;;;;;;16.12;74.31;102520.31;5112362;27;20062;-57
2022/08/10 03:51:25;;;;;;;7.22;5.30;;;;;;;16.17;73.82;102518.00;5115658;27;20135;-57
2022/08/10 03:53:51;;;;;;;5.85;5.07;;;;;;;16.21;74.29;102523.88;5110035;28;20098;-57
2022/08/10 03:56:17;;;;;;;7.05;5.40;;;;;;;16.22;73.52;102525.53;5113675;28;20032;-58
2022/08/10 03:58:43;;;;;;;7.50;5.30;;;;;;;16.17;73.96;102525.19;5110430;27;20103;-56
2022/08/10 04:01:08;;;;;;;6.43;5.30;;;;;;;16.20;73.92;102522.19;5109414;27;20556;-58
2022/08/10 04:03:34;;;;;;;8.88;5.75;;;;;;;16.11;74.28;102516.81;5112222;28;20032;-57
2022/08/10 04:06:00;;;;;;;8.10;5.35;;;;;;;16.06;74.57;102519.09;5108261;28;20055;-56
2022/08/10 04:08:25;;;;;;;7.65;5.30;;;;;;;16.11;74.68;102523.97;5113460;28;20500;-57
2022/08/10 04:10:50;;;;;;;7.55;5.00;;;;;;;16.04;74.67;102520.25;5113219;27;20035;-57
2022/08/10 04:13:16;;;;;;;8.73;5.40;;;;;;;15.97;75.36;102518.22;5110548;28;20031;-56
2022/08/10 04:15:41;;;;;;;8.65;5.45;;;;;;;15.97;75.29;102523.56;5112270;28;20435;-57
2022/08/10 04:18:06;;;;;;;9.32;5.60;;;;;;;15.89;75.24;102520.78;5113136;28;20039;-56
2022/08/10 04:20:43;;;;;;;7.15;5.45;;;;;;;16.03;75.20;102529.28;5112021;28;20084;-56
2022/08/10 04:23:17;;;;;;;8.85;5.13;;;;;;;16.01;74.87;102524.09;5100418;28;20035;-58
2022/08/10 04:25:43;;;;;;;7.68;5.28;;;;;;;16.04;75.24;102528.28;5101910;28;20044;-57
2022/08/10 04:28:09;;;;;;;7.60;5.47;;;;;;;16.01;75.19;102529.44;5105923;28;20495;-58
2022/08/10 04:30:36;;;;;;;7.03;5.78;;;;;;;15.99;75.02;102521.56;5110891;27;20073;-58
2022/08/10 04:33:04;;;;;;;9.35;5.25;;;;;;;15.90;75.96;102533.19;5112377;28;20087;-57
2022/08/10 04:35:31;;;;;;;7.80;5.63;;;;;;;15.94;75.23;102528.38;5102595;28;20036;-57
2022/08/10 04:37:58;;;;;;;9.48;5.57;;;;;;;15.95;75.40;102525.56;5112804;28;20077;-57
2022/08/10 04:40:24;;;;;;;7.00;5.85;;;;;;;15.98;75.36;102529.72;5104332;27;20056;-57
2022/08/10 04:42:49;;;;;;;6.70;5.13;;;;;;;15.99;75.38;102526.91;5109849;28;20389;-58
2022/08/10 04:45:15;;;;;;;8.50;5.63;;;;;;;16.06;75.14;102528.97;5111339;28;20040;-57
2022/08/10 04:47:40;;;;;;;6.50;5.10;;;;;;;16.07;75.20;102530.63;5111406;28;20020;-57
2022/08/10 04:50:06;;;;;;;8.00;5.78;;;;;;;16.04;75.17;102525.59;5108560;27;20040;-58
2022/08/10 04:52:31;;;;;;;9.57;5.70;;;;;;;15.99;75.87;102526.91;5113005;28;20470;-58
2022/08/10 04:54:56;;;;;;;7.32;5.53;;;;;;;15.96;75.82;102521.88;5102321;28;20078;-61
2022/08/10 04:57:22;;;;;;;8.05;5.50;;;;;;;16.01;75.83;102518.72;5106617;28;20046;-58
2022/08/10 04:59:47;;;;;;;8.20;5.60;;;;;;;16.00;75.57;102512.53;5107194;27;20026;-57
2022/08/10 05:02:13;;;;;;;7.55;5.60;;;;;;;16.08;75.55;102513.59;5111389;28;20031;-58
2022/08/10 05:04:39;;;;;;;7.15;5.07;;;;;;;16.02;75.39;102520.41;5108198;28;20116;-59
2022/08/10 05:07:08;;;;;;;7.57;5.53;;;;;;;16.09;75.63;102509.94;5098179;28;20726;-58
2022/08/10 05:09:33;;;;;;;9.50;5.72;;;;;;;16.13;75.28;102516.63;5118244;27;20023;-59
2022/08/10 05:11:59;;;;;;;6.20;5.35;;;;;;;16.21;75.31;102524.72;5114859;27;20346;-59
2022/08/10 05:14:24;;;;;;;7.95;5.50;;;;;;;16.22;75.11;102515.69;5111046;28;20031;-57
2022/08/10 05:16:49;;;;;;;8.07;5.85;;;;;;;16.25;74.81;102514.53;5104393;28;20032;-59
2022/08/10 05:19:14;;;;;;;7.43;6.00;;;;;;;16.23;75.40;102517.38;5109571;27;20077;-59
2022/08/10 05:21:40;;;;;;;7.90;5.68;;;;;;;16.25;75.00;102512.69;5101823;28;20643;-58
2022/08/10 05:24:05;;;;;;;6.75;5.57;;;;;;;16.31;75.40;102518.41;5111555;28;20036;-58
2022/08/10 05:26:30;;;;;;;7.95;5.88;;;;;;;16.29;75.21;102520.41;5110188;28;20375;-59
2022/08/10 05:28:57;;;;;;;9.50;6.00;;;;;;;16.27;75.51;102516.06;5108482;27;20040;-58
2022/08/10 05:31:22;;;;;;;7.90;6.05;;;;;;;16.37;75.21;102523.13;5105722;27;20081;-59
2022/08/10 05:33:48;;;;;;;9.27;6.60;;;;;;;16.40;75.20;102523.63;5104167;28;20422;-58
2022/08/10 05:36:14;;;;;;;7.57;6.38;;;;;;;16.37;75.73;102533.81;5110215;28;20027;-58
2022/08/10 05:38:39;;;;;;;10.32;6.63;;;;;;;16.42;75.30;102536.88;5105501;28;20130;-59
2022/08/10 05:41:05;;;;;;;9.90;6.45;;;;;;;16.41;75.77;102535.19;5099067;28;20095;-57
2022/08/10 05:43:31;;;;;;;9.32;6.45;;;;;;;16.38;75.96;102531.00;5108651;28;20058;-57
2022/08/10 05:45:56;;;;;;;9.27;6.50;;;;;;;16.39;75.75;102532.69;5112332;28;20024;-58
2022/08/10 05:48:21;;;;;;;9.13;6.40;;;;;;;16.42;75.87;102534.19;5103644;28;20032;-61
2022/08/10 05:50:47;;;;;;;11.45;6.15;;;;;;;16.46;75.93;102532.03;5105758;28;20027;-57
2022/08/10 05:53:12;;;;;;;8.95;6.05;;;;;;;16.47;76.16;102523.03;5108328;28;20024;-57
2022/08/10 05:55:38;;;;;;;8.50;6.45;;;;;;;16.56;76.08;102531.91;5099947;28;20159;-57
2022/08/10 05:58:03;;;;;;;9.40;6.40;;;;;;;16.61;75.93;102540.31;5111585;28;20043;-56
2022/08/10 06:00:30;;;;;;;8.38;6.75;;;;;;;16.67;75.79;102531.63;5116547;27;20361;-57
2022/08/10 06:03:02;;;;;;;10.15;7.10;;;;;;;16.71;75.35;102541.03;5110568;28;20039;-57
2022/08/10 06:05:32;;;;;;;8.20;6.63;;;;;;;16.79;75.30;102533.03;5100617;28;20027;-58
2022/08/10 06:08:17;;;;;;;8.75;6.88;;;;;;;16.89;74.91;102532.06;5103992;28;20034;-58
2022/08/10 06:10:45;;;;;;;11.45;7.32;;;;;;;16.89;74.93;102532.91;5104615;27;20533;-57
2022/08/10 06:15:57;;;;;;;9.68;6.95;;;;;;;16.91;75.17;102524.69;5110826;28;20046;-57
2022/08/10 06:18:23;;;;;;;9.32;7.47;;;;;;;17.01;74.53;102538.81;5111597;28;20028;-57
2022/08/10 06:20:50;;;;;;;12.52;7.05;;;;;;;17.01;74.97;102533.44;5124621;28;20404;-57
2022/08/10 06:23:16;;;;;;;10.18;7.45;;;;;;;17.04;75.38;102538.53;5100794;28;20074;-58
2022/08/10 06:25:42;;;;;;;11.00;7.15;;;;;;;17.14;74.98;102540.22;5099006;28;20480;-57
2022/08/10 06:28:13;;;;;;;12.38;7.65;;;;;;;17.17;74.87;102545.25;5111580;28;20032;-57
2022/08/10 06:30:39;;;;;;;10.90;7.50;;;;;;;17.27;74.92;102540.56;5118163;28;20457;-57
2022/08/10 06:33:07;;;;;;;11.98;8.25;;;;;;;17.31;74.84;102544.59;5103189;28;20028;-56
2022/08/10 06:35:33;;;;;;;12.88;8.27;;;;;;;17.38;73.87;102535.91;5097809;28;20054;-58
2022/08/10 06:38:03;;;;;;;14.20;8.20;;;;;;;17.38;73.58;102531.38;5105063;28;20032;-58
2022/08/10 06:40:33;;;;;;;10.65;8.23;;;;;;;17.45;73.46;102535.06;5114637;28;20471;-57
2022/08/10 06:43:04;;;;;;;11.63;8.45;;;;;;;17.47;73.49;102534.91;5096352;28;20074;-58
2022/08/10 06:45:40;;;;;;;9.38;7.78;;;;;;;17.53;73.22;102536.94;5107771;28;20052;-58
2022/08/10 06:48:14;;;;;;;12.57;8.70;;;;;;;17.57;72.88;102540.94;5106336;28;20485;-57
2022/08/10 06:50:48;;;;;;;10.50;8.07;;;;;;;17.59;73.16;102538.09;5110768;27;20115;-57
2022/08/10 06:53:19;;;;;;;10.43;7.72;;;;;;;17.65;73.38;102536.59;5109546;28;20031;-57
2022/08/10 06:55:52;;;;;;;14.13;8.35;;;;;;;17.67;72.40;102539.97;5106862;28;20472;-58
2022/08/10 06:58:22;;;;;;;11.00;7.35;;;;;;;17.74;72.63;102532.91;5109129;28;20032;-57
2022/08/10 07:00:51;;;;;;;14.68;8.23;;;;;;;17.80;72.40;102537.59;5110128;27;20172;-58
2022/08/10 07:03:19;;;;;;;12.90;8.63;;;;;;;17.91;72.13;102540.97;5107706;28;20032;-57
2022/08/10 07:05:49;;;;;;;14.38;8.45;;;;;;;17.99;71.53;102543.63;5107324;28;20360;-58
2022/08/10 07:08:17;;;;;;;13.18;8.52;;;;;;;18.07;72.08;102549.03;5112308;28;20032;-59
2022/08/10 07:10:45;;;;;;;10.18;7.70;;;;;;;18.18;70.50;102546.97;5115998;27;20051;-58
2022/08/10 07:13:11;;;;;;;9.70;7.55;;;;;;;18.26;69.81;102541.63;5111909;28;20679;-58
2022/08/10 07:15:37;;;;;;;12.32;8.38;;;;;;;18.33;70.17;102541.75;5105752;28;20042;-57
2022/08/10 07:18:04;;;;;;;11.05;8.43;;;;;;;18.36;70.07;102546.78;5113405;28;20019;-57
2022/08/10 07:20:32;;;;;;;13.90;8.77;;;;;;;18.46;70.29;102549.28;5118193;27;20095;-58
2022/08/10 07:22:58;;;;;;;8.65;7.63;;;;;;;18.56;69.06;102547.25;5108240;28;20593;-57
2022/08/10 07:25:26;;;;;;;10.57;8.00;;;;;;;18.57;68.66;102542.69;5101760;28;20031;-59
2022/08/10 07:27:53;;;;;;;12.10;7.55;;;;;;;18.68;69.60;102559.28;5110381;28;20057;-56
2022/08/10 07:30:19;;;;;;;12.20;8.07;;;;;;;18.83;68.24;102550.47;5110902;27;20023;-57
2022/08/10 07:32:48;;;;;;;10.40;7.97;;;;;;;18.87;68.29;102550.97;5108560;28;20072;-58
2022/08/10 07:35:17;;;;;;;11.05;8.40;;;;;;;18.92;67.79;102552.13;5108392;28;20036;-60
2022/08/10 07:37:48;;;;;;;8.68;7.65;;;;;;;19.07;67.85;102548.72;5108704;28;20093;-60
2022/08/10 07:40:15;;;;;;;15.13;8.35;;;;;;;19.18;67.09;102553.69;5114527;27;20101;-60
2022/08/10 07:42:43;;;;;;;11.98;7.68;;;;;;;19.26;67.05;102543.88;5107857;28;20077;-60
2022/08/10 07:45:08;;;;;;;11.57;7.93;;;;;;;19.35;65.69;102542.84;5111544;28;20096;-63
2022/08/10 07:47:40;;;;;;;12.43;8.02;;;;;;;19.43;65.21;102544.59;5104648;28;20422;-60
2022/08/10 07:50:09;;;;;;;10.15;7.97;;;;;;;19.53;65.51;102547.09;5109659;27;20468;-60
2022/08/10 07:52:36;;;;;;;11.60;8.32;;;;;;;19.55;65.70;102547.72;5111665;28;20102;-59
2022/08/10 07:55:04;;;;;;;13.70;8.15;;;;;;;19.66;66.04;102539.22;5112457;28;20036;-60
2022/08/10 07:57:32;;;;;;;12.88;8.75;;;;;;;19.90;66.78;102550.81;5101272;28;20043;-60
2022/08/10 08:00:02;;;;;;;11.45;7.82;;;;;;;19.94;63.35;102562.03;5110489;28;20031;-61
2022/08/10 08:02:38;;;;;;;11.48;7.78;;;;;;;20.01;63.50;102552.25;5107630;28;20035;-60
2022/08/10 08:05:08;;;;;;;10.63;7.30;;;;;;;20.07;63.45;102550.69;5105625;28;20043;-60
2022/08/10 08:07:37;;;;;;;11.60;7.40;;;;;;;20.21;63.01;102559.78;5110616;28;20027;-61
2022/08/10 08:10:04;;;;;;;13.73;7.28;;;;;;;20.32;63.05;102553.13;5112629;27;20115;-61
2022/08/10 08:12:30;;;;;;;13.43;7.38;;;;;;;20.49;63.56;102549.22;5110654;28;20107;-61
2022/08/10 08:14:58;;;;;;;12.50;8.07;;;;;;;20.43;61.38;102555.38;5111476;28;20115;-61
2022/08/10 08:17:25;;;;;;;13.00;7.82;;;;;;;20.51;61.21;102557.09;5109388;28;20527;-60
2022/08/10 08:19:53;;;;;;;11.73;7.82;;;;;;;20.54;61.82;102552.16;5107910;27;20024;-60
2022/08/10 08:22:19;;;;;;;14.10;8.13;;;;;;;20.68;62.40;102563.16;5111218;28;20020;-60
2022/08/10 08:24:46;;;;;;;10.80;7.80;;;;;;;20.74;60.94;102557.00;5110455;28;20023;-60
2022/08/10 08:27:18;;;;;;;14.23;7.90;;;;;;;20.78;60.59;102558.28;5103432;28;20059;-61
2022/08/10 08:29:45;;;;;;;11.10;7.90;;;;;;;20.94;60.14;102556.44;5107285;28;20028;-61
2022/08/10 08:32:12;;;;;;;9.63;7.22;;;;;;;21.04;61.46;102559.69;5108613;28;20106;-61
2022/08/10 08:34:41;;;;;;;12.48;7.80;;;;;;;21.16;60.39;102559.19;5091700;28;20046;-61
2022/08/10 08:37:08;;;;;;;12.68;8.20;;;;;;;21.27;59.81;102550.59;5111738;28;20050;-61
2022/08/10 08:39:35;;;;;;;10.77;7.80;;;;;;;21.29;59.39;102553.06;5098879;27;20046;-60
2022/08/10 08:42:27;;;;;;;10.18;8.07;;;;;;;21.32;60.54;102553.53;5105132;28;20020;-61
2022/08/10 08:45:09;;;;;;;12.35;8.20;;;;;;;21.45;60.29;102549.28;5100945;28;20047;-61
2022/08/10 08:47:56;;;;;;;10.75;7.80;;;;;;;21.59;59.92;102548.41;5112310;28;20028;-61
2022/08/10 08:50:38;;;;;;;14.23;8.13;;;;;;;21.63;59.55;102544.28;5112747;27;20112;-61
2022/08/10 08:53:16;;;;;;;10.07;8.03;;;;;;;21.71;59.45;102550.59;5100265;28;20110;-61
2022/08/10 08:56:01;;;;;;;9.85;7.55;;;;;;;21.77;58.24;102549.84;5110346;28;20368;-61
2022/08/10 08:58:42;;;;;;;15.00;7.90;;;;;;;21.81;57.30;102553.78;5109243;28;20133;-61
2022/08/10 09:01:22;;;;;;;12.57;8.02;;;;;;;21.85;57.58;102549.69;5100995;27;20029;-61
2022/08/10 09:04:11;;;;;;;14.27;8.18;;;;;;;21.97;57.28;102558.09;5111653;28;20031;-61
2022/08/10 09:07:07;;;;;;;10.63;7.40;;;;;;;22.04;57.55;102545.47;5101443;28;20031;-61
2022/08/10 09:10:08;;;;;;;13.77;7.57;;;;;;;22.17;56.75;102544.69;5105704;28;20032;-61
2022/08/10 09:12:43;;;;;;;10.90;7.22;;;;;;;22.20;56.33;102531.84;5106890;28;20039;-61
2022/08/10 09:15:25;;;;;;;10.10;7.32;;;;;;;22.34;57.80;102530.88;5108186;28;20028;-62
2022/08/10 09:18:09;;;;;;;12.68;7.13;;;;;;;22.49;56.27;102536.16;5109686;28;20480;-61
2022/08/10 09:20:45;;;;;;;10.50;7.03;;;;;;;22.53;56.12;102533.91;5100642;27;20571;-61
2022/08/10 09:23:34;;;;;;;10.15;6.80;;;;;;;22.67;56.07;102532.09;5105649;28;20039;-61
2022/08/10 09:26:08;;;;;;;10.52;6.50;;;;;;;22.79;54.45;102532.38;5112244;28;20596;-61
2022/08/10 09:28:39;;;;;;;10.15;6.20;;;;;;;22.91;53.78;102528.03;5110816;28;20042;-61
2022/08/10 09:31:12;;;;;;;11.85;6.30;;;;;;;23.00;54.18;102528.69;5111928;27;20043;-60
2022/08/10 09:34:11;;;;;;;9.82;6.15;;;;;;;23.04;54.33;102518.28;5106846;28;20049;-61
2022/08/10 09:37:12;;;;;;;7.43;6.15;;;;;;;23.07;53.13;102515.16;5112809;28;20031;-61
2022/08/10 09:39:51;;;;;;;13.07;7.03;;;;;;;23.10;52.07;102525.59;5102845;28;20039;-62
2022/08/10 09:42:38;;;;;;;10.43;6.28;;;;;;;23.23;53.75;102514.78;5111342;28;20043;-61
2022/08/10 09:45:29;;;;;;;13.13;6.43;;;;;;;23.22;52.82;102515.81;5104082;28;20047;-61
2022/08/10 09:48:09;;;;;;;11.00;6.50;;;;;;;23.35;52.22;102514.19;5109798;28;20031;-61
2022/08/10 09:50:57;;;;;;;11.98;6.93;;;;;;;23.51;51.63;102504.84;5101505;27;20106;-62
2022/08/10 09:54:06;;;;;;;9.02;5.85;;;;;;;23.62;51.63;102501.50;5101403;28;20066;-61
2022/08/10 09:56:51;;;;;;;9.40;5.68;;;;;;;23.70;51.17;102497.75;5059017;28;20047;-61
2022/08/10 09:59:38;;;;;;;15.30;6.55;;;;;;;23.88;50.91;102494.38;5103732;28;20028;-60
2022/08/10 10:02:18;;;;;;;9.70;5.93;;;;;;;23.97;50.03;102497.69;5107903;28;20023;-58
2022/08/10 10:05:01;;;;;;;10.00;5.18;;;;;;;24.21;49.03;102491.84;5109838;28;20039;-60
2022/08/10 10:07:27;;;;;;;;;;;;;;;24.20;49.41;102495.56;5092939;28;20067;-59
2022/08/10 10:10:01;;;;;;;6.72;5.13;;;;;;;24.11;48.98;102493.13;5114311;27;20002;-60
2022/08/10 10:12:43;;;;;;;9.55;5.35;;;;;;;24.19;48.73;102492.06;5108349;28;20086;-59
2022/08/10 10:15:19;;;;;;;10.15;4.30;;;;;;;24.28;48.86;102482.63;5105018;28;20034;-57
2022/08/10 10:18:04;;;;;;;8.23;4.80;;;;;;;24.44;47.50;102491.34;5112276;28;20028;-58
2022/08/10 10:20:40;;;;;;;8.02;4.85;;;;;;;24.51;45.74;102478.56;5096247;28;20035;-58
2022/08/10 10:23:28;;;;;;;5.68;4.25;;;;;;;24.73;45.44;102478.25;5112695;28;20066;-62
2022/08/10 10:26:02;;;;;;;5.90;4.15;;;;;;;24.83;44.37;102473.22;5108422;28;20082;-62
2022/08/10 10:28:52;;;;;;;6.82;4.00;;;;;;;24.97;46.21;102478.56;5102252;28;20024;-62
2022/08/10 10:31:28;;;;;;;7.75;3.80;;;;;;;25.12;43.02;102473.66;5109603;28;20110;-62
2022/08/10 10:34:20;;;;;;;10.15;3.90;;;;;;;25.30;43.18;102469.34;5114464;28;20042;-62
2022/08/10 10:36:47;;;;;;;7.18;3.80;;;;;;;25.43;41.66;102464.84;5107301;28;20043;-61
2022/08/10 10:39:15;;;;;;;7.75;4.00;;;;;;;25.50;42.30;102468.31;5078996;28;20139;-61
2022/08/10 10:42:03;;;;;;;6.78;3.80;;;;;;;25.59;41.66;102464.31;5112145;28;20585;-62
2022/08/10 10:44:51;;;;;;;6.75;3.83;;;;;;;25.74;41.23;102463.94;5105431;28;20040;-62
2022/08/10 10:47:47;;;;;;;5.38;3.75;;;;;;;25.77;41.06;102452.66;5096689;28;20024;-59
2022/08/10 10:50:24;;;;;;;9.07;3.70;;;;;;;25.89;40.20;102444.56;5115444;27;20487;-58
2022/08/10 10:53:02;;;;;;;7.03;3.45;;;;;;;25.99;41.20;102443.22;5104671;28;20035;-59
2022/08/10 10:55:36;;;;;;;4.68;3.42;;;;;;;26.03;39.31;102436.25;5109077;28;20031;-59
2022/08/10 10:58:23;;;;;;;6.15;3.67;;;;;;;26.10;39.35;102431.56;5103715;28;20039;-58
2022/08/10 11:01:01;;;;;;;5.68;3.50;;;;;;;26.21;39.70;102431.84;5112645;27;20019;-58
2022/08/10 11:03:47;;;;;;;6.78;3.40;;;;;;;26.33;39.44;102440.94;5105319;28;20054;-58
2022/08/10 11:06:35;;;;;;;4.15;3.72;;;;;;;26.40;38.48;102433.50;5112680;28;20111;-58
2022/08/10 11:09:04;;;;;;;9.65;4.00;;;;;;;26.41;38.48;102427.03;5100809;28;20044;-60
2022/08/10 11:11:42;;;;;;;6.70;3.67;;;;;;;26.43;38.68;102430.34;5107906;28;20089;-58
2022/08/10 11:14:19;;;;;;;7.18;3.70;;;;;;;26.54;38.39;102411.59;5110000;28;20024;-59
2022/08/10 11:16:57;;;;;;;7.00;3.40;;;;;;;26.67;37.48;102413.25;5113707;28;20071;-59
2022/08/10 11:19:33;;;;;;;5.50;3.40;;;;;;;26.83;37.22;102422.63;5112466;28;20035;-58
2022/08/10 11:22:21;;;;;;;4.43;3.33;;;;;;;26.86;38.85;102400.41;5111035;28;20106;-58
2022/08/10 11:25:05;;;;;;;4.15;3.22;;;;;;;27.02;37.60;102412.53;5106904;28;20055;-58
2022/08/10 11:27:52;;;;;;;5.85;3.55;;;;;;;27.06;36.49;102413.72;5106861;28;20512;-58
2022/08/10 11:30:56;;;;;;;5.85;3.50;;;;;;;27.14;36.80;102401.66;5110950;27;20180;-59
2022/08/10 11:33:27;;;;;;;6.38;3.63;;;;;;;27.12;36.08;102401.91;5104817;28;20172;-59
2022/08/10 11:36:02;;;;;;;5.80;3.45;;;;;;;27.13;36.99;102413.59;5105087;28;20126;-59
2022/08/10 11:38:55;;;;;;;5.38;3.50;;;;;;;27.20;36.19;102403.44;5113225;28;20032;-59
2022/08/10 11:41:55;;;;;;;8.27;3.90;;;;;;;27.27;36.04;102406.03;5104729;28;20028;-58
2022/08/10 11:44:32;;;;;;;5.57;3.30;;;;;;;27.34;36.29;102406.72;5109186;28;20100;-58
2022/08/10 11:47:09;;;;;;;7.20;3.80;;;;;;;27.37;35.24;102397.25;5109575;28;20023;-58